Time;durP1;ratioP1;P1;durP2;ratioP2;P2;SDS_P1;SDS_P2;PMS_P1;PMS_P2;Temp;Humidity;BMP_temperature;BMP_pressure;BME280_temperature;BME280_humidity;BME280_pressure;Samples;Min_cycle;Max_cycle;Signal;HPM_P1;HPM_P2
2023/05/02 00:00:30;;;;;;;1.00;0.50;;;;;;;4.54;100.00;100385.89;104930;1253;73991;-48
2023/05/02 00:02:57;;;;;;;0.60;0.50;;;;;;;4.46;100.00;100387.43;104934;1259;65856;-48
2023/05/02 00:05:25;;;;;;;2.00;0.50;;;;;;;4.37;100.00;100388.98;105256;1259;72290;-49
2023/05/02 00:07:52;;;;;;;4.40;0.50;;;;;;;4.30;100.00;100394.04;105160;1258;60747;-47
2023/05/02 00:10:18;;;;;;;1.70;0.50;;;;;;;4.27;100.00;100393.90;105043;1257;59948;-48
2023/05/02 00:12:45;;;;;;;1.40;0.60;;;;;;;4.25;100.00;100395.54;104920;1259;73453;-46
2023/05/02 00:15:12;;;;;;;0.80;0.40;;;;;;;4.23;100.00;100394.14;105097;1254;70119;-47
2023/05/02 00:17:40;;;;;;;0.80;0.40;;;;;;;4.21;100.00;100396.83;105047;1259;75033;-47
2023/05/02 00:20:09;;;;;;;3.10;0.50;;;;;;;4.18;100.00;100393.47;105174;1254;61092;-48
2023/05/02 00:22:36;;;;;;;1.00;0.30;;;;;;;4.18;100.00;100398.98;105012;1259;59419;-48
2023/05/02 00:25:03;;;;;;;4.30;0.50;;;;;;;4.17;100.00;100398.27;104888;1253;73587;-49
2023/05/02 00:27:31;;;;;;;2.60;0.40;;;;;;;4.17;100.00;100398.27;104761;1254;70325;-50
2023/05/02 00:29:58;;;;;;;1.00;0.40;;;;;;;4.18;100.00;100395.77;104799;1263;71353;-48
2023/05/02 00:32:26;;;;;;;1.00;0.50;;;;;;;4.20;100.00;100397.19;104949;1259;60235;-49
2023/05/02 00:34:53;;;;;;;0.70;0.40;;;;;;;4.21;100.00;100400.02;105044;1254;61930;-50
2023/05/02 00:37:20;;;;;;;1.30;0.40;;;;;;;4.21;100.00;100401.27;105057;1254;73187;-47
2023/05/02 00:39:46;;;;;;;1.30;0.40;;;;;;;4.21;100.00;100400.20;105064;1254;68107;-49
2023/05/02 00:42:13;;;;;;;3.30;0.50;;;;;;;4.20;100.00;100401.98;105099;1254;71532;-48
2023/05/02 00:44:40;;;;;;;2.40;0.40;;;;;;;4.18;100.00;100402.17;105039;1257;59702;-48
2023/05/02 00:47:07;;;;;;;0.60;0.40;;;;;;;4.17;100.00;100405.91;104636;1254;59755;-47
2023/05/02 00:49:34;;;;;;;0.80;0.50;;;;;;;4.16;100.00;100411.11;104662;1254;71645;-49
2023/05/02 00:52:01;;;;;;;1.40;0.70;;;;;;;4.15;100.00;100414.31;105043;1259;66329;-47
2023/05/02 00:54:28;;;;;;;1.50;0.50;;;;;;;4.12;100.00;100419.84;104983;1254;73393;-49
2023/05/02 00:56:56;;;;;;;2.00;0.40;;;;;;;4.08;100.00;100425.40;108809;1254;61903;-48
2023/05/02 00:59:23;;;;;;;2.00;0.50;;;;;;;4.06;100.00;100423.12;108987;1254;59256;-48
2023/05/02 01:02:02;;;;;;;1.40;0.50;;;;;;;4.01;100.00;100427.06;108908;1253;72271;-47
2023/05/02 01:04:35;;;;;;;0.80;0.50;;;;;;;3.97;100.00;100433.69;109018;1254;69404;-47
2023/05/02 01:07:20;;;;;;;1.40;0.50;;;;;;;3.95;100.00;100437.61;108946;1254;74947;-48
2023/05/02 01:09:53;;;;;;;;;;;;;;;3.93;100.00;100437.63;108952;1260;62399;-47
2023/05/02 01:12:24;;;;;;;3.20;0.40;;;;;;;3.91;100.00;100436.08;106651;1254;60505;-48
2023/05/02 01:14:53;;;;;;;1.60;0.60;;;;;;;3.90;100.00;100439.82;104758;1255;74904;-49
2023/05/02 01:17:23;;;;;;;1.10;0.30;;;;;;;3.89;100.00;100442.30;109035;1254;66741;-47
2023/05/02 01:19:52;;;;;;;0.50;0.30;;;;;;;3.87;100.00;100441.25;109024;1254;72859;-47
2023/05/02 01:22:19;;;;;;;0.50;0.30;;;;;;;3.84;100.00;100441.81;107332;1254;59646;-48
2023/05/02 01:24:53;;;;;;;1.00;0.40;;;;;;;3.82;100.00;100442.03;104611;1254;62736;-47
2023/05/02 01:27:27;;;;;;;0.60;0.30;;;;;;;3.82;100.00;100445.40;104990;1259;71930;-47
2023/05/02 01:29:53;;;;;;;0.40;0.30;;;;;;;3.80;100.00;100442.93;106723;1259;68836;-48
2023/05/02 01:32:21;;;;;;;0.80;0.40;;;;;;;3.76;100.00;100443.66;104849;1253;75068;-48
2023/05/02 01:34:48;;;;;;;0.90;0.40;;;;;;;3.74;100.00;100450.98;104644;1254;61932;-47
2023/05/02 01:37:14;;;;;;;1.10;0.40;;;;;;;3.72;100.00;100444.96;104811;1254;60532;-47
2023/05/02 01:39:41;;;;;;;0.50;0.30;;;;;;;3.72;100.00;100446.91;104966;1252;72243;-48
2023/05/02 01:42:08;;;;;;;2.20;0.40;;;;;;;3.71;100.00;100448.69;104697;1254;70137;-45
2023/05/02 01:44:35;;;;;;;1.50;0.50;;;;;;;3.70;100.00;100447.81;104808;1259;71022;-46
2023/05/02 01:47:04;;;;;;;2.60;0.40;;;;;;;3.68;100.00;100452.27;104785;1262;62556;-49
2023/05/02 01:49:31;;;;;;;0.80;0.40;;;;;;;3.65;100.00;100450.52;105136;1259;61304;-48
2023/05/02 01:52:02;;;;;;;0.70;0.40;;;;;;;3.63;100.00;100457.99;105154;1254;71313;-46
2023/05/02 01:54:29;;;;;;;2.70;0.40;;;;;;;3.61;100.00;100454.46;105399;1254;68652;-50
2023/05/02 01:56:56;;;;;;;2.20;0.30;;;;;;;3.58;100.00;100451.83;104993;1259;70890;-46
2023/05/02 01:59:22;;;;;;;0.50;0.40;;;;;;;3.55;100.00;100451.33;104867;1259;59733;-49
2023/05/02 02:01:50;;;;;;;0.60;0.30;;;;;;;3.52;100.00;100450.45;104897;1255;59614;-46
2023/05/02 02:04:18;;;;;;;2.00;0.40;;;;;;;3.51;100.00;100449.76;104720;1259;74499;-47
2023/05/02 02:06:47;;;;;;;2.00;0.40;;;;;;;3.49;100.00;100450.67;105213;1254;69364;-47
2023/05/02 02:09:14;;;;;;;0.70;0.40;;;;;;;3.46;100.00;100449.27;105288;1254;72845;-47
2023/05/02 02:11:43;;;;;;;0.90;0.30;;;;;;;3.46;100.00;100448.56;104973;1254;61716;-44
2023/05/02 02:14:18;;;;;;;0.40;0.30;;;;;;;3.46;100.00;100449.63;105768;1260;59619;-46
2023/05/02 02:16:44;;;;;;;0.80;0.30;;;;;;;3.47;100.00;100452.64;105324;1254;73930;-46
2023/05/02 02:19:12;;;;;;;0.50;0.30;;;;;;;3.49;100.00;100451.90;104873;1254;68935;-47
2023/05/02 02:21:39;;;;;;;1.30;0.40;;;;;;;3.50;100.00;100456.67;105163;1263;75033;-45
2023/05/02 02:24:06;;;;;;;0.70;0.40;;;;;;;3.52;100.00;100455.08;104828;1254;61844;-46
2023/05/02 02:26:34;;;;;;;2.90;0.40;;;;;;;3.53;100.00;100455.42;104911;1259;59619;-48
2023/05/02 02:29:00;;;;;;;1.20;0.40;;;;;;;3.53;100.00;100457.02;104897;1254;73944;-44
2023/05/02 02:31:34;;;;;;;1.90;0.40;;;;;;;3.52;100.00;100456.48;104993;1259;68876;-46
2023/05/02 02:34:01;;;;;;;1.70;0.40;;;;;;;3.50;100.00;100453.48;105585;1259;74168;-46
2023/05/02 02:36:49;;;;;;;1.40;0.40;;;;;;;3.48;100.00;100454.05;104977;1259;59724;-46
2023/05/02 02:39:19;;;;;;;0.60;0.30;;;;;;;3.46;100.00;100455.31;104783;1259;59629;-45
2023/05/02 02:42:29;;;;;;;1.40;0.40;;;;;;;3.43;100.00;100455.14;104973;1256;73340;-46
2023/05/02 02:45:18;;;;;;;0.70;0.30;;;;;;;3.41;100.00;100457.10;104894;1254;69524;-46
2023/05/02 02:48:15;;;;;;;2.80;0.30;;;;;;;3.39;100.00;100457.14;104880;1257;72667;-50
2023/05/02 02:51:00;;;;;;;4.40;0.40;;;;;;;3.37;100.00;100456.27;105733;1260;61672;-46
2023/05/02 02:53:46;;;;;;;2.80;0.40;;;;;;;3.34;100.00;100458.77;105012;1255;60576;-47
2023/05/02 02:56:14;;;;;;;0.90;0.40;;;;;;;3.33;100.00;100463.73;104998;1254;71980;-50
2023/05/02 02:59:00;;;;;;;0.60;0.40;;;;;;;3.32;100.00;100461.27;106259;1259;68440;-46
2023/05/02 03:01:30;;;;;;;0.30;0.30;;;;;;;3.31;100.00;100460.41;106198;1259;75303;-49
2023/05/02 03:03:57;;;;;;;0.70;0.40;;;;;;;3.31;100.00;100463.77;104935;1258;60933;-48
2023/05/02 03:06:24;;;;;;;1.00;0.30;;;;;;;3.33;100.00;100467.64;105057;1257;61320;-49
2023/05/02 03:08:51;;;;;;;1.80;0.40;;;;;;;3.37;100.00;100468.34;104765;1263;75982;-47
2023/05/02 03:11:18;;;;;;;0.80;0.30;;;;;;;3.43;100.00;100468.63;105609;1259;68032;-45
2023/05/02 03:13:46;;;;;;;3.80;0.30;;;;;;;3.49;100.00;100473.02;105425;1256;74884;-47
2023/05/02 03:16:29;;;;;;;2.60;0.30;;;;;;;3.56;100.00;100473.67;104746;1254;60552;-47
2023/05/02 03:18:56;;;;;;;1.00;0.30;;;;;;;3.63;100.00;100479.12;104879;1259;60920;-49
2023/05/02 03:21:23;;;;;;;1.30;0.40;;;;;;;3.69;100.00;100477.46;104879;1265;72220;-49
2023/05/02 03:23:50;;;;;;;1.40;0.60;;;;;;;3.76;100.00;100481.13;105215;1254;69826;-49
2023/05/02 03:26:17;;;;;;;0.70;0.40;;;;;;;3.81;100.00;100484.64;105266;1257;72732;-48
2023/05/02 03:28:47;;;;;;;4.70;0.40;;;;;;;3.87;100.00;100480.48;105022;1254;60638;-47
2023/05/02 03:31:14;;;;;;;1.50;0.50;;;;;;;3.93;100.00;100484.87;104979;1259;62775;-46
2023/05/02 03:33:41;;;;;;;1.20;0.40;;;;;;;3.98;100.00;100483.39;104609;1257;74528;-48
2023/05/02 03:36:08;;;;;;;2.50;0.40;;;;;;;4.04;100.00;100485.48;104982;1254;70590;-47
2023/05/02 03:38:35;;;;;;;1.90;0.50;;;;;;;4.10;100.00;100490.75;104963;1259;75342;-50
2023/05/02 03:41:02;;;;;;;4.70;0.40;;;;;;;4.16;100.00;100496.54;104823;1253;60464;-50
2023/05/02 03:43:29;;;;;;;1.20;0.30;;;;;;;4.22;100.00;100496.30;108898;1254;60080;-47
2023/05/02 03:45:56;;;;;;;4.10;0.40;;;;;;;4.28;100.00;100493.20;106458;1258;75465;-49
2023/05/02 03:48:24;;;;;;;2.00;0.40;;;;;;;4.36;100.00;100498.63;104870;1254;70381;-47
2023/05/02 03:50:51;;;;;;;2.40;0.40;;;;;;;4.45;100.00;100502.25;104782;1259;75333;-47
2023/05/02 03:53:17;;;;;;;5.90;0.40;;;;;;;4.56;100.00;100500.70;104709;1258;61287;-45
2023/05/02 03:55:47;;;;;;;4.50;0.30;;;;;;;4.69;100.00;100493.61;104544;1254;60894;-47
2023/05/02 03:58:17;;;;;;;2.70;0.50;;;;;;;4.84;100.00;100494.83;104843;1259;75502;-47
2023/05/02 04:00:44;;;;;;;1.30;0.50;;;;;;;5.01;100.00;100494.42;104597;1256;68659;-48
2023/05/02 04:03:11;;;;;;;21.70;0.90;;;;;;;5.22;100.00;100493.42;108564;1254;71122;-50
2023/05/02 04:05:41;;;;;;;31.70;1.30;;;;;;;5.47;100.00;100490.36;108660;1256;59831;-48
2023/05/02 04:08:09;;;;;;;4.20;0.40;;;;;;;5.77;100.00;100491.29;108632;1254;61823;-48
2023/05/02 04:10:36;;;;;;;1.70;0.40;;;;;;;6.11;100.00;100484.30;108650;1253;74368;-48
2023/05/02 04:13:05;;;;;;;1.50;0.40;;;;;;;6.44;100.00;100483.99;108662;1260;68511;-48
2023/05/02 04:15:32;;;;;;;0.90;0.30;;;;;;;6.80;100.00;100481.30;108617;1257;73860;-47
2023/05/02 04:17:59;;;;;;;8.30;0.30;;;;;;;7.18;100.00;100472.94;108848;1254;61812;-46
2023/05/02 04:20:27;;;;;;;4.20;0.30;;;;;;;7.60;100.00;100470.14;108917;1259;62569;-46
2023/05/02 04:22:54;;;;;;;2.10;0.30;;;;;;;8.12;100.00;100463.61;109085;1253;76085;-45
2023/05/02 04:25:21;;;;;;;1.30;0.30;;;;;;;8.75;100.00;100457.55;105616;1254;70471;-46
2023/05/02 04:27:49;;;;;;;0.50;0.30;;;;;;;9.36;100.00;100448.32;108958;1258;75043;-48
2023/05/02 04:30:19;;;;;;;0.70;0.40;;;;;;;9.80;100.00;100442.56;108639;1257;60475;-46
2023/05/02 04:32:55;;;;;;;0.50;0.30;;;;;;;10.10;100.00;100442.04;105012;1262;60429;-46
2023/05/02 04:35:23;;;;;;;1.30;0.40;;;;;;;10.35;100.00;100439.02;105480;1256;75207;-49
2023/05/02 04:37:50;;;;;;;0.80;0.40;;;;;;;10.49;100.00;100436.70;105373;1257;68354;-48
2023/05/02 04:40:17;;;;;;;0.90;0.30;;;;;;;10.56;100.00;100439.12;104878;1254;72979;-48
2023/05/02 04:42:46;;;;;;;0.70;0.20;;;;;;;10.57;100.00;100438.36;104909;1260;61407;-46
2023/05/02 04:45:17;;;;;;;2.30;0.30;;;;;;;10.57;100.00;100436.92;105434;1253;62355;-48
2023/05/02 04:47:44;;;;;;;1.30;0.30;;;;;;;10.57;100.00;100439.25;104992;1254;75908;-47
2023/05/02 04:50:11;;;;;;;3.40;0.30;;;;;;;10.58;100.00;100436.88;104868;1262;68931;-47
2023/05/02 04:52:38;;;;;;;3.10;0.30;;;;;;;10.59;100.00;100441.17;104945;1260;72013;-50
2023/05/02 04:55:05;;;;;;;2.40;0.40;;;;;;;10.59;100.00;100441.35;104820;1254;61869;-47
2023/05/02 04:57:32;;;;;;;4.60;0.40;;;;;;;10.59;100.00;100438.29;104901;1254;60417;-48
2023/05/02 05:00:00;;;;;;;2.50;0.80;;;;;;;10.61;100.00;100440.02;104902;1259;76122;-46
2023/05/02 05:02:28;;;;;;;0.70;0.30;;;;;;;10.64;100.00;100440.45;104966;1254;68191;-50
2023/05/02 05:04:56;;;;;;;1.70;0.40;;;;;;;10.68;100.00;100440.32;105897;1260;73994;-49
2023/05/02 05:07:24;;;;;;;3.50;0.30;;;;;;;10.73;100.00;100438.84;104856;1260;61214;-47
2023/05/02 05:09:51;;;;;;;0.60;0.20;;;;;;;10.78;100.00;100440.09;105194;1259;60922;-49
2023/05/02 05:12:20;;;;;;;4.00;0.40;;;;;;;10.84;100.00;100441.65;104244;1254;75763;-51
2023/05/02 05:14:49;;;;;;;4.30;0.30;;;;;;;10.90;100.00;100438.90;104570;1257;68864;-48
2023/05/02 05:17:17;;;;;;;1.00;0.30;;;;;;;10.95;100.00;100441.39;105527;1255;73740;-50
2023/05/02 05:19:44;;;;;;;3.20;0.50;;;;;;;11.02;100.00;100440.97;104844;1259;60855;-48
2023/05/02 05:22:11;;;;;;;1.80;0.50;;;;;;;11.08;100.00;100438.73;105891;1254;62452;-47
2023/05/02 05:24:38;;;;;;;3.30;0.40;;;;;;;11.15;100.00;100436.86;108925;1255;74927;-47
2023/05/02 05:27:05;;;;;;;1.20;0.30;;;;;;;11.21;100.00;100439.84;105882;1262;70070;-50
2023/05/02 05:29:32;;;;;;;0.70;0.30;;;;;;;11.28;100.00;100442.62;104948;1259;74100;-46
2023/05/02 05:31:58;;;;;;;2.50;0.20;;;;;;;11.35;100.00;100441.42;104868;1259;61974;-48
2023/05/02 05:34:26;;;;;;;4.40;0.30;;;;;;;11.42;100.00;100439.69;104701;1256;61183;-51
2023/05/02 05:36:56;;;;;;;0.50;0.20;;;;;;;11.50;100.00;100435.63;104693;1254;75268;-50
2023/05/02 05:39:24;;;;;;;0.60;0.20;;;;;;;11.57;100.00;100435.48;104741;1260;68549;-50
2023/05/02 05:41:53;;;;;;;1.10;0.20;;;;;;;11.65;100.00;100430.30;104978;1263;73055;-46
2023/05/02 05:44:21;;;;;;;1.20;0.20;;;;;;;11.74;100.00;100432.27;104952;1257;60523;-48
2023/05/02 05:46:48;;;;;;;8.80;0.20;;;;;;;11.82;100.00;100430.33;104832;1261;60466;-47
2023/05/02 05:49:15;;;;;;;0.40;0.20;;;;;;;11.91;100.00;100433.73;105118;1259;73651;-48
2023/05/02 05:51:42;;;;;;;1.50;0.20;;;;;;;12.00;100.00;100432.23;105852;1259;65951;-47
2023/05/02 05:54:10;;;;;;;1.50;0.20;;;;;;;12.09;100.00;100430.05;104885;1259;74454;-51
2023/05/02 05:56:37;;;;;;;2.50;0.20;;;;;;;12.18;100.00;100428.02;104651;1254;63450;-46
2023/05/02 05:59:08;;;;;;;0.60;0.20;;;;;;;12.27;100.00;100417.59;105075;1255;60433;-48
2023/05/02 06:01:35;;;;;;;0.40;0.10;;;;;;;12.35;100.00;100419.73;105076;1260;74373;-48
2023/05/02 06:04:03;;;;;;;1.10;0.10;;;;;;;12.42;100.00;100421.89;108891;1254;68513;-50
2023/05/02 06:06:32;;;;;;;9.60;0.30;;;;;;;12.49;100.00;100419.60;108884;1253;74541;-51
2023/05/02 06:08:59;;;;;;;1.70;0.20;;;;;;;12.56;100.00;100416.61;105808;1254;61427;-47
2023/05/02 06:11:27;;;;;;;3.40;0.10;;;;;;;12.63;100.00;100416.98;105039;1257;60894;-45
2023/05/02 06:13:55;;;;;;;3.00;0.20;;;;;;;12.70;100.00;100414.83;106681;1258;72820;-46
2023/05/02 06:16:22;;;;;;;5.80;0.20;;;;;;;12.76;100.00;100414.37;104502;1260;69362;-49
2023/05/02 06:18:50;;;;;;;1.20;0.20;;;;;;;12.83;100.00;100415.89;104521;1261;73919;-51
2023/05/02 06:21:17;;;;;;;0.40;0.20;;;;;;;12.88;100.00;100418.33;105395;1257;60372;-49
2023/05/02 06:23:44;;;;;;;0.50;0.20;;;;;;;12.94;100.00;100419.85;104323;1259;60554;-48
2023/05/02 06:26:11;;;;;;;1.10;0.20;;;;;;;13.01;100.00;100418.46;105860;1253;72076;-49
2023/05/02 06:28:38;;;;;;;5.40;0.20;;;;;;;13.07;100.00;100416.54;104534;1253;67308;-48
2023/05/02 06:31:05;;;;;;;2.70;0.20;;;;;;;13.13;100.00;100412.43;104469;1257;75785;-48
2023/05/02 06:33:32;;;;;;;1.50;0.20;;;;;;;13.19;100.00;100412.17;104953;1260;60552;-48
2023/05/02 06:35:59;;;;;;;0.90;0.30;;;;;;;13.26;100.00;100413.63;104756;1255;63072;-50
2023/05/02 06:38:27;;;;;;;0.30;0.20;;;;;;;13.34;100.00;100415.23;104718;1254;77776;-50
2023/05/02 06:40:54;;;;;;;0.40;0.10;;;;;;;13.41;100.00;100413.96;104591;1257;69070;-49
2023/05/02 06:43:21;;;;;;;0.40;0.10;;;;;;;13.47;100.00;100413.11;104868;1257;73461;-48
2023/05/02 06:45:51;;;;;;;0.80;0.10;;;;;;;13.54;100.00;100409.73;104512;1255;60895;-50
2023/05/02 06:48:17;;;;;;;2.50;0.20;;;;;;;13.60;100.00;100410.15;104230;1255;64335;-49
2023/05/02 06:50:44;;;;;;;8.70;0.40;;;;;;;13.67;100.00;100411.79;108844;1257;76111;-50
2023/05/02 06:53:11;;;;;;;2.20;0.20;;;;;;;13.74;100.00;100410.89;108880;1254;66944;-48
2023/05/02 06:55:37;;;;;;;0.30;0.10;;;;;;;13.80;100.00;100414.88;109064;1254;74427;-48
2023/05/02 06:58:04;;;;;;;0.30;0.20;;;;;;;13.87;100.00;100413.98;108888;1254;59572;-49
2023/05/02 07:00:31;;;;;;;0.30;0.10;;;;;;;13.96;100.00;100410.28;109106;1253;62360;-49
2023/05/02 07:02:58;;;;;;;0.30;0.20;;;;;;;14.06;100.00;100409.58;108913;1254;72396;-50
2023/05/02 07:05:24;;;;;;;3.90;0.30;;;;;;;14.15;100.00;100407.28;109139;1253;65510;-52
2023/05/02 07:07:51;;;;;;;1.90;0.10;;;;;;;14.23;100.00;100408.15;109067;1257;73165;-51
2023/05/02 07:10:18;;;;;;;0.30;0.10;;;;;;;14.29;100.00;100411.58;108966;1254;62645;-48
2023/05/02 07:12:44;;;;;;;2.10;0.20;;;;;;;14.35;100.00;100414.52;109057;1253;58921;-50
2023/05/02 07:15:12;;;;;;;2.40;0.20;;;;;;;14.44;100.00;100409.42;109070;1255;75862;-51
2023/05/02 07:17:39;;;;;;;1.30;0.20;;;;;;;14.51;100.00;100412.10;108979;1254;68847;-49
2023/05/02 07:20:07;;;;;;;0.30;0.10;;;;;;;14.56;100.00;100406.91;109039;1253;71012;-50
2023/05/02 07:22:34;;;;;;;0.70;0.10;;;;;;;14.65;100.00;100405.75;109095;1254;61526;-49
2023/05/02 07:25:01;;;;;;;0.30;0.20;;;;;;;14.72;100.00;100406.20;109098;1254;62596;-50
2023/05/02 07:27:28;;;;;;;2.50;0.20;;;;;;;14.79;100.00;100407.10;108995;1254;74710;-49
2023/05/02 07:29:54;;;;;;;2.30;0.20;;;;;;;14.89;100.00;100397.90;109008;1253;67421;-50
2023/05/02 07:32:21;;;;;;;0.20;0.10;;;;;;;14.97;100.00;100395.46;109004;1254;73470;-52
2023/05/02 07:34:48;;;;;;;0.40;0.10;;;;;;;15.04;100.00;100390.52;107461;1255;60444;-47
2023/05/02 07:37:15;;;;;;;0.20;0.10;;;;;;;15.10;100.00;100392.70;104628;1254;61732;-49
2023/05/02 07:39:41;;;;;;;2.60;0.10;;;;;;;15.17;100.00;100395.02;104801;1254;74534;-52
2023/05/02 07:42:08;;;;;;;0.50;0.10;;;;;;;15.24;100.00;100396.07;104986;1257;67828;-53
2023/05/02 07:44:35;;;;;;;1.00;0.30;;;;;;;15.30;100.00;100398.08;105033;1259;74646;-52
2023/05/02 07:47:02;;;;;;;1.30;0.20;;;;;;;15.36;100.00;100395.73;104735;1257;61098;-50
2023/05/02 07:49:30;;;;;;;0.50;0.20;;;;;;;15.42;100.00;100396.48;104839;1254;60401;-50
2023/05/02 07:51:56;;;;;;;5.90;0.20;;;;;;;15.47;100.00;100394.92;104711;1254;73967;-48
2023/05/02 07:54:26;;;;;;;0.40;0.10;;;;;;;15.50;100.00;100395.98;105020;1254;68317;-48
2023/05/02 07:56:56;;;;;;;0.40;0.10;;;;;;;15.53;100.00;100388.05;105127;1254;73868;-49
2023/05/02 07:59:23;;;;;;;0.50;0.10;;;;;;;15.56;100.00;100388.84;108964;1253;62176;-50
2023/05/02 08:01:49;;;;;;;4.70;0.20;;;;;;;15.58;100.00;100388.14;107548;1254;64619;-50
2023/05/02 08:04:16;;;;;;;1.60;0.10;;;;;;;15.66;100.00;100393.85;104180;1254;74374;-51
2023/05/02 08:06:44;;;;;;;2.40;0.50;;;;;;;15.74;100.00;100393.55;108221;1254;67179;-47
2023/05/02 08:09:10;;;;;;;3.90;0.30;;;;;;;15.79;100.00;100391.39;104973;1254;73540;-49
2023/05/02 08:11:37;;;;;;;1.00;0.10;;;;;;;15.84;100.00;100389.27;104735;1254;60479;-51
2023/05/02 08:14:04;;;;;;;0.40;0.20;;;;;;;15.90;100.00;100391.64;104848;1254;60469;-50
2023/05/02 08:16:31;;;;;;;2.50;0.20;;;;;;;15.94;100.00;100384.54;104537;1260;73219;-51
2023/05/02 08:18:57;;;;;;;0.20;0.10;;;;;;;15.98;100.00;100380.71;104877;1258;68823;-55
2023/05/02 08:21:24;;;;;;;1.80;0.20;;;;;;;16.02;100.00;100382.58;104784;1259;76034;-50
2023/05/02 08:23:51;;;;;;;0.40;0.10;;;;;;;16.10;100.00;100384.80;104658;1259;62885;-51
2023/05/02 08:26:20;;;;;;;0.40;0.20;;;;;;;16.17;100.00;100381.11;104942;1260;60756;-49
2023/05/02 08:28:47;;;;;;;1.80;0.20;;;;;;;16.23;100.00;100385.31;105147;1254;72334;-50
2023/05/02 08:31:14;;;;;;;0.40;0.20;;;;;;;16.29;100.00;100384.92;104852;1254;68146;-51
2023/05/02 08:33:40;;;;;;;1.80;0.10;;;;;;;16.36;100.00;100378.14;105118;1254;74724;-47
2023/05/02 08:36:12;;;;;;;0.30;0.20;;;;;;;16.45;100.00;100374.88;105019;1254;60513;-51
2023/05/02 08:38:38;;;;;;;5.30;0.20;;;;;;;16.52;100.00;100369.19;105362;1256;60325;-51
2023/05/02 08:41:12;;;;;;;0.40;0.10;;;;;;;16.56;100.00;100365.85;104986;1260;75629;-50
2023/05/02 08:43:39;;;;;;;1.00;0.30;;;;;;;16.59;100.00;100365.27;104988;1259;67034;-53
2023/05/02 08:46:07;;;;;;;0.60;0.10;;;;;;;16.65;100.00;100359.70;107767;1257;72937;-47
2023/05/02 08:48:35;;;;;;;4.60;0.20;;;;;;;16.73;100.00;100356.66;104923;1254;61788;-50
2023/05/02 08:51:03;;;;;;;0.90;0.20;;;;;;;16.78;100.00;100349.42;104968;1254;60612;-50
2023/05/02 08:53:31;;;;;;;1.40;0.20;;;;;;;16.82;100.00;100345.17;104800;1254;74179;-49
2023/05/02 08:55:59;;;;;;;0.40;0.20;;;;;;;16.89;100.00;100344.13;104670;1259;66321;-51
2023/05/02 08:58:25;;;;;;;0.30;0.20;;;;;;;16.97;100.00;100343.44;104393;1253;70854;-50
2023/05/02 09:00:52;;;;;;;0.30;0.20;;;;;;;17.04;100.00;100341.00;104451;1255;61236;-52
2023/05/02 09:03:32;;;;;;;2.70;0.20;;;;;;;17.11;100.00;100340.75;104578;1261;63836;-49
2023/05/02 09:06:11;;;;;;;0.40;0.20;;;;;;;17.17;100.00;100333.96;104700;1253;76180;-50
2023/05/02 09:08:42;;;;;;;0.50;0.20;;;;;;;17.21;100.00;100334.40;107356;1254;66959;-51
2023/05/02 09:11:09;;;;;;;0.20;0.20;;;;;;;17.25;100.00;100334.34;105133;1256;73670;-51
2023/05/02 09:13:37;;;;;;;0.60;0.20;;;;;;;17.29;100.00;100333.89;105198;1254;64095;-52
2023/05/02 09:16:08;;;;;;;3.50;0.50;;;;;;;17.34;100.00;100330.98;104572;1254;60899;-51
2023/05/02 09:18:48;;;;;;;2.70;0.30;;;;;;;17.37;100.00;100323.52;105080;1258;75214;-50
2023/05/02 09:21:17;;;;;;;0.70;0.20;;;;;;;17.37;100.00;100320.26;104391;1254;69413;-50
2023/05/02 09:23:48;;;;;;;4.80;0.20;;;;;;;17.36;100.00;100321.20;104767;1254;72650;-49
2023/05/02 09:26:19;;;;;;;1.60;0.20;;;;;;;17.36;100.00;100315.11;104702;1254;60552;-52
2023/05/02 09:28:47;;;;;;;0.40;0.20;;;;;;;17.37;100.00;100317.17;104358;1260;61340;-51
2023/05/02 09:31:22;;;;;;;4.70;0.20;;;;;;;17.43;100.00;100310.45;104536;1257;74141;-49
2023/05/02 09:33:52;;;;;;;2.80;0.20;;;;;;;17.48;100.00;100303.92;105059;1256;69455;-50
2023/05/02 09:36:20;;;;;;;0.30;0.20;;;;;;;17.51;100.00;100305.75;105724;1256;74795;-50
2023/05/02 09:38:48;;;;;;;0.70;0.20;;;;;;;17.53;100.00;100303.27;104827;1254;62427;-51
2023/05/02 09:41:16;;;;;;;0.90;0.30;;;;;;;17.55;100.00;100297.84;105965;1256;62396;-51
2023/05/02 09:43:54;;;;;;;2.90;0.30;;;;;;;17.58;100.00;100298.71;105093;1257;73480;-52
2023/05/02 09:46:20;;;;;;;0.30;0.20;;;;;;;17.62;100.00;100301.55;104890;1254;66429;-50
2023/05/02 09:48:55;;;;;;;0.50;0.20;;;;;;;17.64;100.00;100304.67;104816;1260;74760;-51
2023/05/02 09:51:22;;;;;;;0.50;0.30;;;;;;;17.69;100.00;100303.61;105170;1254;62700;-52
2023/05/02 09:53:49;;;;;;;4.10;0.20;;;;;;;17.71;100.00;100295.33;104734;1254;61753;-50
2023/05/02 09:56:16;;;;;;;1.30;0.20;;;;;;;17.70;100.00;100295.39;105035;1254;76129;-49
2023/05/02 09:58:43;;;;;;;0.60;0.20;;;;;;;17.69;100.00;100299.25;104896;1259;69048;-52
2023/05/02 10:01:17;;;;;;;9.90;0.50;;;;;;;17.72;100.00;100300.86;104883;1254;74199;-51
2023/05/02 10:03:46;;;;;;;1.60;0.20;;;;;;;17.76;100.00;100295.85;109092;1256;62286;-51
2023/05/02 10:06:14;;;;;;;0.70;0.20;;;;;;;17.81;100.00;100298.22;109000;1254;61512;-52
2023/05/02 10:08:41;;;;;;;0.50;0.20;;;;;;;17.88;100.00;100300.50;109074;1253;75433;-52
2023/05/02 10:11:07;;;;;;;0.60;0.20;;;;;;;17.94;100.00;100299.50;109153;1253;71544;-52
2023/05/02 10:13:36;;;;;;;8.00;0.20;;;;;;;17.99;100.00;100298.94;109020;1253;73480;-52
2023/05/02 10:16:03;;;;;;;1.20;0.30;;;;;;;18.04;100.00;100294.21;108953;1254;62138;-51
2023/05/02 10:18:42;;;;;;;1.90;0.20;;;;;;;18.12;100.00;100293.33;108992;1253;61649;-52
2023/05/02 10:21:10;;;;;;;1.10;0.30;;;;;;;18.22;100.00;100285.57;109062;1253;75212;-51
2023/05/02 10:23:42;;;;;;;2.70;0.20;;;;;;;18.29;100.00;100286.06;108271;1254;67614;-51
2023/05/02 10:26:13;;;;;;;1.50;0.20;;;;;;;18.38;100.00;100280.36;108861;1260;74513;-51
2023/05/02 10:28:41;;;;;;;0.20;0.20;;;;;;;18.44;100.00;100280.70;109033;1254;62811;-51
2023/05/02 10:31:12;;;;;;;2.90;0.20;;;;;;;18.44;100.00;100276.70;108827;1255;60571;-52
2023/05/02 10:33:39;;;;;;;0.50;0.20;;;;;;;18.42;100.00;100283.88;108837;1254;76180;-52
2023/05/02 10:36:07;;;;;;;1.80;0.20;;;;;;;18.44;100.00;100282.86;109089;1254;67624;-52
2023/05/02 10:38:34;;;;;;;0.60;0.20;;;;;;;18.45;100.00;100276.02;108461;1256;75583;-51
2023/05/02 10:41:14;;;;;;;0.40;0.20;;;;;;;18.47;100.00;100274.41;104952;1254;61313;-51
2023/05/02 10:43:40;;;;;;;1.40;0.20;;;;;;;18.50;100.00;100277.08;104995;1254;60559;-51
2023/05/02 10:46:33;;;;;;;0.50;0.30;;;;;;;18.53;100.00;100278.57;105017;1254;75612;-52
2023/05/02 10:49:06;;;;;;;1.00;0.10;;;;;;;18.57;100.00;100272.66;105016;1259;66946;-53
2023/05/02 10:51:35;;;;;;;0.40;0.20;;;;;;;18.59;100.00;100271.64;105021;1258;73341;-53
2023/05/02 10:54:24;;;;;;;4.30;0.20;;;;;;;18.62;100.00;100267.73;107117;1257;60469;-53
2023/05/02 10:57:04;;;;;;;2.00;0.30;;;;;;;18.64;100.00;100267.91;105147;1254;60704;-48
2023/05/02 10:59:38;;;;;;;1.00;0.30;;;;;;;18.67;100.00;100267.39;105931;1253;73930;-52
2023/05/02 11:02:29;;;;;;;0.30;0.20;;;;;;;18.67;100.00;100276.65;104741;1256;65576;-52
2023/05/02 11:05:03;;;;;;;0.30;0.10;;;;;;;18.66;100.00;100269.45;105146;1254;290627;-49
2023/05/02 11:08:20;;;;;;;0.90;0.20;;;;;;;18.68;100.00;100269.30;101715;1295;601669;-50
2023/05/02 11:10:49;;;;;;;1.90;0.20;;;;;;;18.65;100.00;100262.03;103938;1271;62260;-49
2023/05/02 11:13:15;;;;;;;3.00;0.30;;;;;;;18.64;100.00;100263.38;103928;1272;60660;-51
2023/05/02 11:15:42;;;;;;;1.10;0.20;;;;;;;18.61;100.00;100263.13;103803;1268;71393;-51
2023/05/02 11:18:13;;;;;;;1.40;0.30;;;;;;;18.59;100.00;100266.67;103946;1267;66319;-52
2023/05/02 11:20:43;;;;;;;0.30;0.20;;;;;;;18.60;100.00;100265.55;103857;1267;73733;-50